Home > Products > Valid Products > TAF

000
FTUS43 KMQT 221500 AAB
TAFSAW
TAF AMD
KSAW 221522Z 2215/2312 00000KT 1/4SM FZFG OVC001
     FM221630 18005KT P6SM SCT007
     FM221700 18010KT P6SM FEW250
     FM230800 19007KT P6SM BKN003
      AMD LTD TO CLD VIS AND WIND 2302/2310=



000
FTUS43 KMQT 221200 AAA
TAFSAW
TAF AMD
KSAW 221237Z 2213/2312 00000KT 1/4SM FZFG OVC001
     FM221430 18005KT P6SM SCT007
     FM221600 18010KT P6SM FEW250
     FM230800 19007KT P6SM BKN003
      AMD LTD TO CLD VIS AND WIND 2302/2310=



000
FTUS43 KMQT 221100
TAFSAW
TAF
KSAW 221126Z 2212/2312 20003KT 3SM BR BKN002
     FM221400 18005KT P6SM SCT007
     FM221600 18010KT P6SM FEW250
     FM230800 19007KT P6SM BKN003
      AMD LTD TO CLD VIS AND WIND 2302/2310=



000
FTUS43 KMQT 221100
TAFCMX
TAF
KCMX 221126Z 2212/2312 16005KT P6SM SKC
     FM221700 14009KT P6SM FEW250
     FM230300 16007KT P6SM SCT120
     FM230700 17006KT P6SM VCSH BKN080=



000
FTUS43 KMQT 221100 AAA
TAFSAW
TAF AMD
KSAW 221104Z 2211/2306 22003KT P6SM SKC
      TEMPO 2211/2212 BKN003
     FM221200 18003KT 3SM BR BKN002
     FM221400 18005KT P6SM SCT007
     FM221600 18010KT P6SM FEW250=



000
FTUS43 KMQT 220500
TAFCMX
TAF
KCMX 220523Z 2206/2306 11006KT P6SM SKC
     FM221700 12009KT P6SM SCT250
     FM222300 16005KT P6SM BKN200=



000
FTUS43 KMQT 220500
TAFSAW
TAF
KSAW 220523Z 2206/2306 14003KT P6SM SKC
     FM220900 18003KT 3SM BR SKC
     FM221300 18009KT P6SM SCT250
      AMD LTD TO CLD VIS AND WIND TIL 221000=



000
FTUS43 KMQT 220500
TAFCMX
TAF
KCMX 220523Z 2206/2306 11006KT P6SM SKC
     FM221700 12009KT P6SM SCT250
     FM222300 16005KT P6SM BKN200=



000
FTUS43 KMQT 220500
TAFSAW
TAF
KSAW 220523Z 2206/2306 14003KT P6SM SKC
     FM220900 18003KT 3SM BR SKC
     FM221300 18009KT P6SM SCT250
      AMD LTD TO CLD VIS AND WIND TIL 221000=



000
FTUS43 KMQT 212300
TAFCMX
TAF
KCMX 212322Z 2200/2224 09003KT P6SM SKC
     FM221700 12009KT P6SM SCT250=



000
FTUS43 KMQT 212300
TAFSAW
TAF
KSAW 212322Z 2200/2224 04005KT P6SM SKC
     FM220200 VRB03KT P6SM SKC
     FM220900 18003KT 3SM BR SKC
     FM221300 18009KT P6SM FEW250
      AMD LTD TO CLD VIS AND WIND 2202/2210=



000
FTUS43 KMQT 211700
TAFCMX
TAF
KCMX 211731Z 2118/2218 07009KT P6SM SKC
     FM212000 13004KT P6SM SKC=



000
FTUS43 KMQT 211700
TAFSAW
TAF
KSAW 211731Z 2118/2218 36010KT P6SM SCT025
     FM212000 03007KT P6SM SKC
     FM220200 16003KT P6SM SKC
      AMD LTD TO CLD VIS AND WIND 2202/2210=



000
FTUS43 KMQT 211100
TAFSAW
TAF
KSAW 211123Z 2112/2212 01010KT P6SM OVC015
     FM211800 03007KT P6SM SKC
     FM220200 16003KT P6SM SKC
      AMD LTD TO CLD VIS AND WIND 2202/2210=



000
FTUS43 KMQT 211100
TAFCMX
TAF
KCMX 211123Z 2112/2212 07009KT P6SM OVC015
     FM211500 09010KT P6SM SCT025
     FM212000 13004KT P6SM SKC=



000
FTUS43 KMQT 211100
TAFCMX
TAF
KCMX 211123Z 2112/2212 07009KT P6SM OVC015
     FM211500 09010KT P6SM SCT025
     FM212000 13004KT P6SM SKC=



000
FTUS43 KMQT 211100
TAFSAW
TAF
KSAW 211123Z 2112/2212 01010KT P6SM OVC015
     FM211800 03007KT P6SM SKC
     FM220200 16003KT P6SM SKC
      AMD LTD TO CLD VIS AND WIND 2202/2210=



000
FTUS43 KMQT 211000 AAA
TAFCMX
TAF AMD
KCMX 211033Z 2111/2206 04006KT P6SM OVC015
     FM211200 07009KT P6SM OVC025
     FM211500 09010KT P6SM SCT025=



000
FTUS43 KMQT 211000 AAA
TAFCMX
TAF AMD
KCMX 211033Z 2111/2206 04006KT P6SM OVC015
     FM211200 07009KT P6SM OVC025
     FM211500 09010KT P6SM SCT025=



000
FTUS43 KMQT 211000 CCA
TAFSAW
TAF COR
KSAW 211030Z 2110/2206 01010KT P6SM OVC015
     FM211900 04003KT P6SM SKC
      AMD LTD TO CLD VIS AND WIND 2202/2206=



000
FTUS43 KMQT 211000 CCA
TAFSAW
TAF COR
KSAW 211030Z 2110/2206 01010KT P6SM OVC015
     FM211900 04003KT P6SM SKC
      AMD LTD TO CLD VIS AND WIND 2202/2206=



000
FTUS43 KMQT 211000 AAA
TAFSAW
TAF AMD
KSAW 211029Z 2110/2206 01010KT P6SM OVC015
     FM211900 04003KT P6SM SKC
      AMD LTD TO CLD VIS AND WIND TIL 211000=



000
FTUS43 KMQT 211000 AAA
TAFSAW
TAF AMD
KSAW 211029Z 2110/2206 01010KT P6SM OVC015
     FM211900 04003KT P6SM SKC
      AMD LTD TO CLD VIS AND WIND TIL 211000=



000
FTUS43 KMQT 210500
TAFCMX
TAF
KCMX 210537Z 2106/2206 02010KT P6SM OVC015
     FM210900 03009KT P6SM OVC025
     FM211500 09010KT P6SM SCT025=



000
FTUS43 KMQT 210500
TAFSAW
TAF
KSAW 210537Z 2106/2206 01011KT 4SM -DZ OVC006
     FM211000 02009KT P6SM OVC008
     FM211200 02010KT P6SM OVC010
     FM220000 04003KT P6SM SKC
      AMD LTD TO CLD VIS AND WIND TIL 211000=



000
FTUS43 KMQT 210300 AAA
TAFCMX
TAF AMD
KCMX 210318Z 2103/2124 02012KT P6SM OVC015
     FM210900 03009KT P6SM OVC025
     FM211500 07010KT P6SM SCT025=



000
FTUS43 KMQT 210300 AAA
TAFCMX
TAF AMD
KCMX 210318Z 2103/2124 02012KT P6SM OVC015
     FM210900 03009KT P6SM OVC025
     FM211500 07010KT P6SM SCT025=



000
FTUS43 KMQT 202300
TAFCMX
TAF
KCMX 202320Z 2100/2124 35010KT P6SM OVC020
     FM210300 01012KT P6SM OVC025
     FM210900 03009KT P6SM OVC025
     FM211500 07010KT P6SM SCT025=



000
FTUS43 KMQT 202300
TAFSAW
TAF
KSAW 202320Z 2100/2124 34012G20KT P6SM -SHRA OVC012
     FM210300 01010KT P6SM -SHRA OVC009
     FM211200 02010KT P6SM OVC010
      AMD LTD TO CLD VIS AND WIND 2102/2110=



000
FTUS43 KMQT 202000 AAB
TAFCMX
TAF AMD
KCMX 202055Z 2021/2118 35010KT P6SM OVC015
     FM210100 36012KT P6SM OVC025
     FM210900 02009KT P6SM SCT035=



000
FTUS43 KMQT 201900 AAA
TAFCMX
TAF AMD
KCMX 201902Z 2019/2118 33010KT P6SM SCT015 OVC025
     FM210100 36012KT P6SM OVC025
     FM210900 02009KT P6SM SCT035=



000
FTUS43 KMQT 201700
TAFSAW
TAF
KSAW 201727Z 2018/2118 36010KT 4SM -SHRA BR OVC008
     FM202000 35012G20KT P6SM -SHRA OVC012
     FM210800 01010KT P6SM OVC025
      AMD LTD TO CLD VIS AND WIND 2102/2110=



000
FTUS43 KMQT 201700
TAFCMX
TAF
KCMX 201727Z 2018/2118 33010KT P6SM OVC015
     FM210100 36012KT P6SM OVC025
     FM210900 02009KT P6SM SCT035=



000
FTUS43 KMQT 201100
TAFCMX
TAF
KCMX 201133Z 2012/2112 33010KT P6SM OVC015
      TEMPO 2012/2015 BKN008
     FM202000 34013KT P6SM OVC020
     FM210100 02009KT P6SM OVC015=



000
FTUS43 KMQT 201100
TAFSAW
TAF
KSAW 201133Z 2012/2112 33008KT P6SM OVC010
     FM201800 36013KT P6SM -SHRA OVC015
     FM210100 01012G20KT P6SM -SHRA OVC006
     FM210500 01010KT P6SM OVC010
      AMD LTD TO CLD VIS AND WIND 2102/2110=



000
FTUS43 KMQT 200500
TAFCMX
TAF
KCMX 200537Z 2006/2106 31005KT P6SM OVC030
     FM200700 33004KT P6SM OVC025
     FM200900 33007KT P6SM -SHRA OVC015
     FM201300 33010KT P6SM -SHRA OVC010
     FM201700 34013KT P6SM OVC020
     FM210100 02010KT P6SM OVC025=



000
FTUS43 KMQT 200500
TAFSAW
TAF
KSAW 200537Z 2006/2106 26004KT P6SM OVC050
     FM200900 29004KT P6SM OVC030
     FM201000 33006KT P6SM OVC015
     FM201200 33008KT P6SM -SHRA OVC010
     FM210100 01010KT P6SM -SHRA OVC006
      AMD LTD TO CLD VIS AND WIND TIL 201000=



000
FTUS43 KMQT 200300 AAB
TAFCMX
TAF AMD
KCMX 200317Z 2003/2024 31005KT P6SM BKN035
     FM200700 27004KT P6SM BKN025
     FM200800 31007KT P6SM OVC015
     FM201300 33010KT P6SM -SHRA OVC015
     FM201700 34013KT P6SM OVC020=



000
FTUS43 KMQT 200100 AAA
TAFCMX
TAF AMD
KCMX 200100Z 2001/2024 27005KT P6SM BKN035
     FM200400 27004KT P6SM BKN025
     FM200700 31007KT P6SM OVC015
     FM201300 33010KT P6SM -SHRA OVC015
     FM201700 34013KT P6SM OVC020=



000
FTUS43 KMQT 192300
TAFSAW
TAF
KSAW 192320Z 2000/2024 20007KT P6SM BKN035
     FM200400 24005KT P6SM OVC040
     FM200700 29004KT P6SM OVC030
     FM200900 32006KT P6SM OVC015
     FM201200 33008KT P6SM -SHRA OVC010
      AMD LTD TO CLD VIS AND WIND 2002/2010=



000
FTUS43 KMQT 192300
TAFCMX
TAF
KCMX 192320Z 2000/2024 20005KT P6SM BKN030
     FM200200 27004KT P6SM BKN025
     FM200700 31007KT P6SM OVC015
     FM201300 33010KT P6SM -SHRA OVC015
     FM201700 34013KT P6SM OVC020=



000
FTUS43 KMQT 192300
TAFCMX
TAF
KCMX 192320Z 2000/2024 20005KT P6SM BKN030
     FM200200 27004KT P6SM BKN025
     FM200700 31007KT P6SM OVC015
     FM201300 33010KT P6SM -SHRA OVC015
     FM201700 34013KT P6SM OVC020=



000
FTUS43 KMQT 192300
TAFSAW
TAF
KSAW 192320Z 2000/2024 20007KT P6SM BKN035
     FM200400 24005KT P6SM OVC040
     FM200700 29004KT P6SM OVC030
     FM200900 32006KT P6SM OVC015
     FM201200 33008KT P6SM -SHRA OVC010
      AMD LTD TO CLD VIS AND WIND 2002/2010=



000
FTUS43 KMQT 191800 AAA
TAFSAW
TAF AMD
KSAW 191858Z 1919/2018 18011KT P6SM -SHRA OVC070
     FM192300 20007KT P6SM OVC035
     FM200000 20007KT P6SM OVC030
     FM200400 24005KT P6SM OVC040
     FM200700 29004KT P6SM OVC030
     FM200900 32006KT P6SM OVC015
     FM201200 33008KT P6SM -SHRA OVC010
      AMD LTD TO CLD VIS AND WIND 2002/2010=



000
FTUS43 KMQT 191700
TAFCMX
TAF
KCMX 191726Z 1918/2018 17008KT P6SM -SHRA OVC070
     FM192100 20005KT P6SM OVC060
     FM200200 27004KT P6SM BKN045
     FM200600 30006KT P6SM OVC025
     FM200700 30007KT P6SM OVC020
     FM201300 33010KT P6SM -SHRA OVC015
     FM201700 34013KT P6SM OVC020=



000
FTUS43 KMQT 191700
TAFSAW
TAF
KSAW 191726Z 1918/2018 20011KT P6SM -SHRA OVC070
     FM192300 20007KT P6SM OVC035
     FM200000 20007KT P6SM OVC030
     FM200400 24005KT P6SM OVC040
     FM200700 29004KT P6SM OVC030
     FM200900 32006KT P6SM OVC015
     FM201200 33008KT P6SM -SHRA OVC010
      AMD LTD TO CLD VIS AND WIND 2002/2010=



    US Dept of Commerce
    National Oceanic and Atmospheric Administration
    National Weather Service
    1325 East West Highway
    Silver Spring, MD 20910
    Page Author: NWS Internet Services Team
Disclaimer
Information Quality
Credits
Glossary
Privacy Policy
Freedom of Information Act (FOIA)
About Us
Career Opportunities